Terminal Aerodrome Forecast
Issued by NWS Tampa Bay Area, FL

Home | Current Version | Previous Version | Text Only | Print | Product List | Glossary On
Versions: 1 2 3 4 5 6 7 8 9 10 11 12 13 14 15 16 17 18
000
FTUS42 KTBW 282327
TAFSRQ
TAF
KSRQ 282327Z 2900/2924 08010KT P6SM VCSH SCT040 BKN100
     FM290200 09010G15KT P6SM FEW150 SCT200
     FM291500 09012G17KT P6SM VCTS SCT025CB BKN090
     FM291800 08011G16KT P6SM VCTS BKN035CB BKN100=

USA.gov is the U.S. government's official web portal to all federal, state and local government web resources and services.